createdAt,value
2023-04-23T00:03:08.569Z,998.393
2023-04-23T00:23:07.516Z,998.378
2023-04-23T00:43:07.347Z,998.463
2023-04-23T01:03:08.338Z,998.542
2023-04-23T01:23:07.376Z,998.505
2023-04-23T01:43:07.528Z,998.615
2023-04-23T02:03:09.030Z,998.726
2023-04-23T02:23:07.978Z,998.704
2023-04-23T02:43:07.742Z,998.659
2023-04-23T03:03:12.967Z,998.815
2023-04-23T03:23:07.860Z,998.883
2023-04-23T03:43:07.651Z,998.952
2023-04-23T04:03:08.895Z,998.973
2023-04-23T04:23:07.964Z,998.952
2023-04-23T04:43:08.194Z,998.851
2023-04-23T05:03:14.039Z,998.764
2023-04-23T05:23:08.134Z,998.925
2023-04-23T05:43:08.113Z,998.867
2023-04-23T06:03:09.446Z,998.821
2023-04-23T06:23:07.416Z,998.769
2023-04-23T06:43:07.279Z,998.599
2023-04-23T07:03:08.818Z,998.497
2023-04-23T07:23:07.877Z,998.309
2023-04-23T07:43:07.702Z,998.062
2023-04-23T08:03:09.107Z,998.076
2023-04-23T08:23:07.928Z,997.928
2023-04-23T08:43:07.845Z,997.892
2023-04-23T09:03:09.260Z,997.819
2023-04-23T09:23:08.118Z,997.629
2023-04-23T09:43:08.269Z,997.538
2023-04-23T10:03:09.015Z,997.466
2023-04-23T10:23:07.931Z,997.393
2023-04-23T10:43:08.022Z,997.454
2023-04-23T11:03:09.363Z,997.302
2023-04-23T11:23:07.512Z,997.139
2023-04-23T11:43:07.571Z,996.936
2023-04-23T12:03:09.488Z,996.707
2023-04-23T12:23:07.394Z,996.347
2023-04-23T12:43:07.177Z,996.402
2023-04-23T13:03:09.458Z,996.109
2023-04-23T13:23:07.401Z,995.622
2023-04-23T13:43:07.361Z,995.327
2023-04-23T14:03:08.614Z,995.085
2023-04-23T14:23:07.667Z,994.97
2023-04-23T14:43:16.895Z,994.604
2023-04-23T15:03:09.390Z,994.234
2023-04-23T15:23:07.257Z,994.138
2023-04-23T15:43:07.218Z,993.811
2023-04-23T16:03:09.785Z,993.777
2023-04-23T16:23:07.731Z,993.519
2023-04-23T16:43:07.811Z,993.174
2023-04-23T17:03:09.178Z,993.124
2023-04-23T17:23:08.155Z,993.042
2023-04-23T17:43:08.194Z,992.982
2023-04-23T18:03:10.013Z,992.735
2023-04-23T18:23:07.978Z,992.487
2023-04-23T18:43:08.064Z,992.549
2023-04-23T19:03:28.064Z,993.682
2023-04-23T19:23:08.052Z,993.407
2023-04-23T19:43:08.230Z,992.952
2023-04-23T20:03:09.074Z,992.534
2023-04-23T20:23:08.076Z,992.456
2023-04-23T20:43:08.063Z,992.339
2023-04-23T21:03:09.869Z,992.17
2023-04-23T21:23:07.861Z,991.984
2023-04-23T21:43:08.024Z,991.913
2023-04-23T22:03:09.381Z,991.817
2023-04-23T22:23:07.506Z,991.907
2023-04-23T22:43:07.168Z,992.015
2023-04-23T23:03:09.396Z,992.218
2023-04-23T23:23:07.233Z,992.305
2023-04-23T23:43:08.052Z,992.153
